sensor_id;sensor_type;location;lat;lon;timestamp;P1;durP1;ratioP1;P2;durP2;ratioP2
12332;SDS011;6232;48.094;11.288;2022-09-12T00:02:31;6.93;;;5.23;;
12332;SDS011;6232;48.094;11.288;2022-09-12T00:05:16;6.50;;;5.23;;
12332;SDS011;6232;48.094;11.288;2022-09-12T00:08:02;12.70;;;4.97;;
12332;SDS011;6232;48.094;11.288;2022-09-12T00:10:49;7.83;;;5.53;;
12332;SDS011;6232;48.094;11.288;2022-09-12T00:13:35;13.70;;;5.57;;
12332;SDS011;6232;48.094;11.288;2022-09-12T00:16:22;5.90;;;5.07;;
12332;SDS011;6232;48.094;11.288;2022-09-12T00:19:08;7.83;;;5.03;;
12332;SDS011;6232;48.094;11.288;2022-09-12T00:21:54;5.53;;;4.83;;
12332;SDS011;6232;48.094;11.288;2022-09-12T00:24:40;7.30;;;4.87;;
12332;SDS011;6232;48.094;11.288;2022-09-12T00:27:26;7.30;;;5.10;;
12332;SDS011;6232;48.094;11.288;2022-09-12T00:30:11;6.87;;;5.50;;
12332;SDS011;6232;48.094;11.288;2022-09-12T00:32:57;13.03;;;6.00;;
12332;SDS011;6232;48.094;11.288;2022-09-12T00:35:43;9.53;;;5.00;;
12332;SDS011;6232;48.094;11.288;2022-09-12T00:38:29;9.10;;;5.60;;
12332;SDS011;6232;48.094;11.288;2022-09-12T00:41:19;6.97;;;5.27;;
12332;SDS011;6232;48.094;11.288;2022-09-12T00:47:03;8.87;;;5.10;;
12332;SDS011;6232;48.094;11.288;2022-09-12T00:52:40;5.27;;;4.77;;
12332;SDS011;6232;48.094;11.288;2022-09-12T00:55:30;6.50;;;4.80;;
12332;SDS011;6232;48.094;11.288;2022-09-12T01:01:02;7.90;;;6.00;;
12332;SDS011;6232;48.094;11.288;2022-09-12T01:03:48;9.53;;;5.70;;
12332;SDS011;6232;48.094;11.288;2022-09-12T01:06:35;5.83;;;4.73;;
12332;SDS011;6232;48.094;11.288;2022-09-12T01:09:21;7.47;;;5.63;;
12332;SDS011;6232;48.094;11.288;2022-09-12T01:12:07;5.50;;;4.00;;
12332;SDS011;6232;48.094;11.288;2022-09-12T01:14:52;6.37;;;4.40;;
12332;SDS011;6232;48.094;11.288;2022-09-12T01:29:34;4.50;;;3.80;;
12332;SDS011;6232;48.094;11.288;2022-09-12T01:35:28;7.40;;;3.80;;
12332;SDS011;6232;48.094;11.288;2022-09-12T01:41:10;6.63;;;3.80;;
12332;SDS011;6232;48.094;11.288;2022-09-12T01:47:08;8.40;;;4.43;;
12332;SDS011;6232;48.094;11.288;2022-09-12T01:50:00;3.97;;;3.63;;
12332;SDS011;6232;48.094;11.288;2022-09-12T01:52:54;4.70;;;4.20;;
12332;SDS011;6232;48.094;11.288;2022-09-12T01:55:43;6.27;;;4.57;;
12332;SDS011;6232;48.094;11.288;2022-09-12T01:58:44;5.23;;;4.27;;
12332;SDS011;6232;48.094;11.288;2022-09-12T02:01:32;5.00;;;4.13;;
12332;SDS011;6232;48.094;11.288;2022-09-12T02:04:19;11.63;;;4.40;;
12332;SDS011;6232;48.094;11.288;2022-09-12T02:09:53;9.50;;;5.63;;
12332;SDS011;6232;48.094;11.288;2022-09-12T02:12:41;28.27;;;5.13;;
12332;SDS011;6232;48.094;11.288;2022-09-12T02:15:37;27.00;;;6.50;;
12332;SDS011;6232;48.094;11.288;2022-09-12T02:18:24;19.53;;;4.87;;
12332;SDS011;6232;48.094;11.288;2022-09-12T02:21:30;21.53;;;5.80;;
12332;SDS011;6232;48.094;11.288;2022-09-12T02:24:17;30.43;;;5.20;;
12332;SDS011;6232;48.094;11.288;2022-09-12T02:27:05;23.77;;;5.00;;
12332;SDS011;6232;48.094;11.288;2022-09-12T02:29:52;12.00;;;5.13;;
12332;SDS011;6232;48.094;11.288;2022-09-12T02:33:00;6.30;;;4.33;;
12332;SDS011;6232;48.094;11.288;2022-09-12T02:35:57;15.03;;;4.30;;
12332;SDS011;6232;48.094;11.288;2022-09-12T02:38:44;4.20;;;3.80;;
12332;SDS011;6232;48.094;11.288;2022-09-12T02:41:30;9.43;;;3.70;;
12332;SDS011;6232;48.094;11.288;2022-09-12T02:44:16;4.13;;;3.73;;
12332;SDS011;6232;48.094;11.288;2022-09-12T02:47:03;4.27;;;3.63;;
12332;SDS011;6232;48.094;11.288;2022-09-12T02:49:50;13.93;;;3.93;;
12332;SDS011;6232;48.094;11.288;2022-09-12T02:52:35;15.00;;;3.80;;
12332;SDS011;6232;48.094;11.288;2022-09-12T02:55:21;9.73;;;4.00;;
12332;SDS011;6232;48.094;11.288;2022-09-12T02:58:10;4.60;;;4.10;;
12332;SDS011;6232;48.094;11.288;2022-09-12T03:06:48;5.87;;;4.43;;
12332;SDS011;6232;48.094;11.288;2022-09-12T03:09:44;4.57;;;3.80;;
12332;SDS011;6232;48.094;11.288;2022-09-12T03:21:21;3.80;;;3.40;;
12332;SDS011;6232;48.094;11.288;2022-09-12T03:27:07;5.23;;;3.80;;
12332;SDS011;6232;48.094;11.288;2022-09-12T03:29:55;3.80;;;3.40;;
12332;SDS011;6232;48.094;11.288;2022-09-12T03:32:46;4.20;;;3.30;;
12332;SDS011;6232;48.094;11.288;2022-09-12T03:35:31;3.93;;;3.30;;
12332;SDS011;6232;48.094;11.288;2022-09-12T03:38:17;4.43;;;3.60;;
12332;SDS011;6232;48.094;11.288;2022-09-12T03:41:03;6.07;;;3.83;;
12332;SDS011;6232;48.094;11.288;2022-09-12T03:43:49;6.70;;;3.47;;
12332;SDS011;6232;48.094;11.288;2022-09-12T03:46:34;3.83;;;3.53;;
12332;SDS011;6232;48.094;11.288;2022-09-12T03:49:20;6.80;;;4.10;;
12332;SDS011;6232;48.094;11.288;2022-09-12T03:52:06;5.07;;;3.83;;
12332;SDS011;6232;48.094;11.288;2022-09-12T03:54:51;5.27;;;3.70;;
12332;SDS011;6232;48.094;11.288;2022-09-12T03:57:37;5.70;;;4.37;;
12332;SDS011;6232;48.094;11.288;2022-09-12T04:00:23;3.63;;;3.00;;
12332;SDS011;6232;48.094;11.288;2022-09-12T04:03:09;4.60;;;3.80;;
12332;SDS011;6232;48.094;11.288;2022-09-12T04:05:56;5.17;;;3.93;;
12332;SDS011;6232;48.094;11.288;2022-09-12T04:08:42;4.87;;;3.20;;
12332;SDS011;6232;48.094;11.288;2022-09-12T04:11:28;3.60;;;3.30;;
12332;SDS011;6232;48.094;11.288;2022-09-12T04:14:14;3.80;;;3.50;;
12332;SDS011;6232;48.094;11.288;2022-09-12T04:16:59;11.53;;;3.10;;
12332;SDS011;6232;48.094;11.288;2022-09-12T04:19:45;4.20;;;3.80;;
12332;SDS011;6232;48.094;11.288;2022-09-12T04:22:30;9.67;;;4.70;;
12332;SDS011;6232;48.094;11.288;2022-09-12T04:28:37;6.20;;;3.50;;
12332;SDS011;6232;48.094;11.288;2022-09-12T04:31:23;9.37;;;2.70;;
12332;SDS011;6232;48.094;11.288;2022-09-12T04:34:09;9.70;;;3.60;;
12332;SDS011;6232;48.094;11.288;2022-09-12T04:36:54;4.37;;;2.77;;
12332;SDS011;6232;48.094;11.288;2022-09-12T04:39:40;7.10;;;2.97;;
12332;SDS011;6232;48.094;11.288;2022-09-12T04:42:25;9.40;;;3.60;;
12332;SDS011;6232;48.094;11.288;2022-09-12T04:45:11;5.70;;;3.70;;
12332;SDS011;6232;48.094;11.288;2022-09-12T04:47:58;5.67;;;3.77;;
12332;SDS011;6232;48.094;11.288;2022-09-12T04:50:43;9.37;;;3.53;;
12332;SDS011;6232;48.094;11.288;2022-09-12T04:53:29;3.53;;;3.23;;
12332;SDS011;6232;48.094;11.288;2022-09-12T04:56:15;10.00;;;3.03;;
12332;SDS011;6232;48.094;11.288;2022-09-12T04:59:01;5.83;;;3.87;;
12332;SDS011;6232;48.094;11.288;2022-09-12T05:01:46;9.70;;;3.50;;
12332;SDS011;6232;48.094;11.288;2022-09-12T05:04:32;7.43;;;4.23;;
12332;SDS011;6232;48.094;11.288;2022-09-12T05:07:19;19.17;;;5.17;;
12332;SDS011;6232;48.094;11.288;2022-09-12T05:10:04;8.67;;;4.00;;
12332;SDS011;6232;48.094;11.288;2022-09-12T05:12:50;31.20;;;4.77;;
12332;SDS011;6232;48.094;11.288;2022-09-12T05:15:36;9.80;;;3.90;;
12332;SDS011;6232;48.094;11.288;2022-09-12T05:18:22;16.90;;;4.30;;
12332;SDS011;6232;48.094;11.288;2022-09-12T05:21:09;5.47;;;3.50;;
12332;SDS011;6232;48.094;11.288;2022-09-12T05:23:56;5.87;;;3.60;;
12332;SDS011;6232;48.094;11.288;2022-09-12T05:26:44;3.80;;;3.50;;
12332;SDS011;6232;48.094;11.288;2022-09-12T05:29:29;4.60;;;3.93;;
12332;SDS011;6232;48.094;11.288;2022-09-12T05:32:15;3.50;;;3.20;;
12332;SDS011;6232;48.094;11.288;2022-09-12T05:35:01;5.10;;;3.47;;
12332;SDS011;6232;48.094;11.288;2022-09-12T05:37:46;3.23;;;2.93;;
12332;SDS011;6232;48.094;11.288;2022-09-12T05:40:32;8.80;;;3.40;;
12332;SDS011;6232;48.094;11.288;2022-09-12T05:43:18;11.57;;;5.43;;
12332;SDS011;6232;48.094;11.288;2022-09-12T05:46:05;16.13;;;6.70;;
12332;SDS011;6232;48.094;11.288;2022-09-12T05:48:53;9.60;;;5.07;;
12332;SDS011;6232;48.094;11.288;2022-09-12T05:51:40;11.27;;;4.93;;
12332;SDS011;6232;48.094;11.288;2022-09-12T05:54:26;5.90;;;5.30;;
12332;SDS011;6232;48.094;11.288;2022-09-12T05:57:11;8.23;;;4.60;;
12332;SDS011;6232;48.094;11.288;2022-09-12T05:59:57;5.37;;;4.30;;
12332;SDS011;6232;48.094;11.288;2022-09-12T06:02:43;10.27;;;5.20;;
12332;SDS011;6232;48.094;11.288;2022-09-12T06:05:28;6.77;;;4.40;;
12332;SDS011;6232;48.094;11.288;2022-09-12T06:08:15;5.57;;;4.57;;
12332;SDS011;6232;48.094;11.288;2022-09-12T06:11:01;7.50;;;5.40;;
12332;SDS011;6232;48.094;11.288;2022-09-12T06:13:47;6.23;;;4.37;;
12332;SDS011;6232;48.094;11.288;2022-09-12T06:16:33;7.60;;;4.80;;
12332;SDS011;6232;48.094;11.288;2022-09-12T06:19:19;6.67;;;5.10;;
12332;SDS011;6232;48.094;11.288;2022-09-12T06:22:05;6.30;;;4.37;;
12332;SDS011;6232;48.094;11.288;2022-09-12T06:24:51;7.83;;;6.10;;
12332;SDS011;6232;48.094;11.288;2022-09-12T06:27:36;7.60;;;5.93;;
12332;SDS011;6232;48.094;11.288;2022-09-12T06:30:22;10.80;;;6.00;;
12332;SDS011;6232;48.094;11.288;2022-09-12T06:33:08;10.77;;;6.50;;
12332;SDS011;6232;48.094;11.288;2022-09-12T06:35:53;8.80;;;5.50;;
12332;SDS011;6232;48.094;11.288;2022-09-12T06:38:39;9.67;;;6.60;;
12332;SDS011;6232;48.094;11.288;2022-09-12T06:41:25;9.37;;;6.43;;
12332;SDS011;6232;48.094;11.288;2022-09-12T06:44:12;11.63;;;7.37;;
12332;SDS011;6232;48.094;11.288;2022-09-12T06:46:58;16.27;;;6.33;;
12332;SDS011;6232;48.094;11.288;2022-09-12T06:49:44;9.00;;;6.70;;
12332;SDS011;6232;48.094;11.288;2022-09-12T06:52:29;10.43;;;7.00;;
12332;SDS011;6232;48.094;11.288;2022-09-12T06:55:15;8.10;;;6.53;;
12332;SDS011;6232;48.094;11.288;2022-09-12T06:58:01;10.30;;;6.03;;
12332;SDS011;6232;48.094;11.288;2022-09-12T07:00:46;7.30;;;5.67;;
12332;SDS011;6232;48.094;11.288;2022-09-12T07:03:32;12.67;;;6.87;;
12332;SDS011;6232;48.094;11.288;2022-09-12T07:06:19;10.33;;;6.83;;
12332;SDS011;6232;48.094;11.288;2022-09-12T07:09:05;12.50;;;5.33;;
12332;SDS011;6232;48.094;11.288;2022-09-12T07:11:51;6.80;;;5.13;;
12332;SDS011;6232;48.094;11.288;2022-09-12T07:14:36;16.23;;;5.97;;
12332;SDS011;6232;48.094;11.288;2022-09-12T07:17:22;5.40;;;4.70;;
12332;SDS011;6232;48.094;11.288;2022-09-12T07:20:07;6.10;;;4.43;;
12332;SDS011;6232;48.094;11.288;2022-09-12T07:22:53;6.63;;;5.07;;
12332;SDS011;6232;48.094;11.288;2022-09-12T07:25:39;5.53;;;4.57;;
12332;SDS011;6232;48.094;11.288;2022-09-12T07:28:25;6.77;;;4.43;;
12332;SDS011;6232;48.094;11.288;2022-09-12T07:31:12;5.13;;;4.63;;
12332;SDS011;6232;48.094;11.288;2022-09-12T07:34:03;5.37;;;4.03;;
12332;SDS011;6232;48.094;11.288;2022-09-12T07:36:49;4.50;;;3.93;;
12332;SDS011;6232;48.094;11.288;2022-09-12T07:39:34;4.30;;;3.90;;
12332;SDS011;6232;48.094;11.288;2022-09-12T07:42:20;3.63;;;3.33;;
12332;SDS011;6232;48.094;11.288;2022-09-12T07:45:05;10.23;;;4.20;;
12332;SDS011;6232;48.094;11.288;2022-09-12T07:47:52;6.00;;;3.63;;
12332;SDS011;6232;48.094;11.288;2022-09-12T07:50:38;5.80;;;3.37;;
12332;SDS011;6232;48.094;11.288;2022-09-12T07:53:24;5.10;;;3.80;;
12332;SDS011;6232;48.094;11.288;2022-09-12T07:56:10;7.80;;;3.80;;
12332;SDS011;6232;48.094;11.288;2022-09-12T07:58:56;6.03;;;3.17;;
12332;SDS011;6232;48.094;11.288;2022-09-12T08:01:41;4.40;;;3.03;;
12332;SDS011;6232;48.094;11.288;2022-09-12T08:04:27;3.50;;;3.20;;
12332;SDS011;6232;48.094;11.288;2022-09-12T08:07:13;4.17;;;3.40;;
12332;SDS011;6232;48.094;11.288;2022-09-12T08:10:02;7.30;;;3.30;;
12332;SDS011;6232;48.094;11.288;2022-09-12T08:12:48;3.37;;;3.10;;
12332;SDS011;6232;48.094;11.288;2022-09-12T08:15:33;4.20;;;3.80;;
12332;SDS011;6232;48.094;11.288;2022-09-12T08:18:19;3.77;;;3.37;;
12332;SDS011;6232;48.094;11.288;2022-09-12T08:21:06;4.97;;;3.47;;
12332;SDS011;6232;48.094;11.288;2022-09-12T08:23:53;4.80;;;4.27;;
12332;SDS011;6232;48.094;11.288;2022-09-12T08:26:39;4.30;;;3.90;;
12332;SDS011;6232;48.094;11.288;2022-09-12T08:29:24;4.73;;;4.10;;
12332;SDS011;6232;48.094;11.288;2022-09-12T08:32:10;4.93;;;3.70;;
12332;SDS011;6232;48.094;11.288;2022-09-12T08:34:56;5.40;;;3.50;;
12332;SDS011;6232;48.094;11.288;2022-09-12T08:37:41;3.30;;;3.10;;
12332;SDS011;6232;48.094;11.288;2022-09-12T08:40:27;3.40;;;3.20;;
12332;SDS011;6232;48.094;11.288;2022-09-12T08:43:32;3.63;;;3.33;;
12332;SDS011;6232;48.094;11.288;2022-09-12T08:46:30;4.17;;;2.57;;
12332;SDS011;6232;48.094;11.288;2022-09-12T08:49:22;2.97;;;2.50;;
12332;SDS011;6232;48.094;11.288;2022-09-12T08:58:15;3.03;;;2.73;;
12332;SDS011;6232;48.094;11.288;2022-09-12T09:01:18;2.80;;;2.60;;
12332;SDS011;6232;48.094;11.288;2022-09-12T09:04:23;7.50;;;2.50;;
12332;SDS011;6232;48.094;11.288;2022-09-12T09:07:19;2.80;;;2.60;;
12332;SDS011;6232;48.094;11.288;2022-09-12T09:13:01;2.20;;;2.10;;
12332;SDS011;6232;48.094;11.288;2022-09-12T09:18:35;2.37;;;2.27;;
12332;SDS011;6232;48.094;11.288;2022-09-12T09:21:34;3.50;;;2.20;;
12332;SDS011;6232;48.094;11.288;2022-09-12T09:24:24;2.37;;;2.17;;
12332;SDS011;6232;48.094;11.288;2022-09-12T09:27:14;1.93;;;1.80;;
12332;SDS011;6232;48.094;11.288;2022-09-12T09:30:04;2.90;;;2.60;;
12332;SDS011;6232;48.094;11.288;2022-09-12T09:32:55;1.80;;;1.70;;
12332;SDS011;6232;48.094;11.288;2022-09-12T09:35:45;2.10;;;1.90;;
12332;SDS011;6232;48.094;11.288;2022-09-12T09:38:46;3.17;;;1.90;;
12332;SDS011;6232;48.094;11.288;2022-09-12T09:44:37;1.70;;;1.60;;
12332;SDS011;6232;48.094;11.288;2022-09-12T09:47:23;1.80;;;1.67;;
12332;SDS011;6232;48.094;11.288;2022-09-12T09:50:11;1.70;;;1.60;;
12332;SDS011;6232;48.094;11.288;2022-09-12T09:52:58;1.67;;;1.57;;
12332;SDS011;6232;48.094;11.288;2022-09-12T09:55:45;1.67;;;1.57;;
12332;SDS011;6232;48.094;11.288;2022-09-12T09:58:31;5.20;;;3.77;;
12332;SDS011;6232;48.094;11.288;2022-09-12T10:01:17;1.47;;;1.37;;
12332;SDS011;6232;48.094;11.288;2022-09-12T10:04:03;4.07;;;1.50;;
12332;SDS011;6232;48.094;11.288;2022-09-12T10:06:50;2.47;;;1.50;;
12332;SDS011;6232;48.094;11.288;2022-09-12T10:09:36;2.97;;;2.20;;
12332;SDS011;6232;48.094;11.288;2022-09-12T10:12:26;1.93;;;1.60;;
12332;SDS011;6232;48.094;11.288;2022-09-12T10:15:23;3.83;;;1.43;;
12332;SDS011;6232;48.094;11.288;2022-09-12T10:18:21;1.30;;;1.20;;
12332;SDS011;6232;48.094;11.288;2022-09-12T10:21:21;1.67;;;1.27;;
12332;SDS011;6232;48.094;11.288;2022-09-12T10:27:05;2.63;;;1.20;;
12332;SDS011;6232;48.094;11.288;2022-09-12T10:32:38;1.77;;;1.10;;
12332;SDS011;6232;48.094;11.288;2022-09-12T10:35:27;1.50;;;1.40;;
12332;SDS011;6232;48.094;11.288;2022-09-12T10:38:25;1.47;;;1.23;;
12332;SDS011;6232;48.094;11.288;2022-09-12T10:41:11;2.03;;;1.53;;
12332;SDS011;6232;48.094;11.288;2022-09-12T10:44:04;2.13;;;1.40;;
12332;SDS011;6232;48.094;11.288;2022-09-12T10:46:50;1.37;;;1.20;;
12332;SDS011;6232;48.094;11.288;2022-09-12T10:49:36;1.00;;;1.00;;
12332;SDS011;6232;48.094;11.288;2022-09-12T10:52:25;5.63;;;1.30;;
12332;SDS011;6232;48.094;11.288;2022-09-12T10:55:14;1.50;;;1.40;;
12332;SDS011;6232;48.094;11.288;2022-09-12T11:06:56;1.55;;;1.23;;
12332;SDS011;6232;48.094;11.288;2022-09-12T11:12:37;2.65;;;1.20;;
12332;SDS011;6232;48.094;11.288;2022-09-12T11:18:24;2.70;;;1.00;;
12332;SDS011;6232;48.094;11.288;2022-09-12T11:29:58;1.75;;;1.50;;
12332;SDS011;6232;48.094;11.288;2022-09-12T11:35:34;1.23;;;1.13;;
12332;SDS011;6232;48.094;11.288;2022-09-12T11:41:27;1.30;;;1.20;;
12332;SDS011;6232;48.094;11.288;2022-09-12T11:44:23;1.60;;;1.00;;
12332;SDS011;6232;48.094;11.288;2022-09-12T11:47:11;1.60;;;1.10;;
12332;SDS011;6232;48.094;11.288;2022-09-12T11:49:57;3.13;;;1.00;;
12332;SDS011;6232;48.094;11.288;2022-09-12T11:52:44;1.17;;;1.08;;
12332;SDS011;6232;48.094;11.288;2022-09-12T11:55:31;1.83;;;1.10;;
12332;SDS011;6232;48.094;11.288;2022-09-12T11:58:22;1.10;;;1.00;;
12332;SDS011;6232;48.094;11.288;2022-09-12T12:01:11;0.90;;;0.90;;
12332;SDS011;6232;48.094;11.288;2022-09-12T12:03:58;2.90;;;1.20;;
12332;SDS011;6232;48.094;11.288;2022-09-12T12:06:50;1.45;;;1.10;;
12332;SDS011;6232;48.094;11.288;2022-09-12T12:09:45;0.95;;;0.88;;
12332;SDS011;6232;48.094;11.288;2022-09-12T12:12:32;1.20;;;1.08;;
12332;SDS011;6232;48.094;11.288;2022-09-12T12:15:18;1.20;;;1.10;;
12332;SDS011;6232;48.094;11.288;2022-09-12T12:20:50;1.33;;;1.20;;
12332;SDS011;6232;48.094;11.288;2022-09-12T12:23:36;1.60;;;1.02;;
12332;SDS011;6232;48.094;11.288;2022-09-12T12:26:39;1.25;;;1.00;;
12332;SDS011;6232;48.094;11.288;2022-09-12T12:35:01;1.27;;;1.17;;
12332;SDS011;6232;48.094;11.288;2022-09-12T12:37:51;1.40;;;1.30;;
12332;SDS011;6232;48.094;11.288;2022-09-12T12:40:37;1.50;;;1.40;;
12332;SDS011;6232;48.094;11.288;2022-09-12T12:43:30;1.55;;;1.17;;
12332;SDS011;6232;48.094;11.288;2022-09-12T12:46:17;7.70;;;1.40;;
12332;SDS011;6232;48.094;11.288;2022-09-12T12:52:00;1.10;;;1.00;;
12332;SDS011;6232;48.094;11.288;2022-09-12T12:54:47;6.53;;;1.30;;
12332;SDS011;6232;48.094;11.288;2022-09-12T12:57:39;1.45;;;1.00;;
12332;SDS011;6232;48.094;11.288;2022-09-12T13:00:27;1.13;;;1.02;;
12332;SDS011;6232;48.094;11.288;2022-09-12T13:03:27;1.10;;;1.00;;
12332;SDS011;6232;48.094;11.288;2022-09-12T13:06:24;1.30;;;1.20;;
12332;SDS011;6232;48.094;11.288;2022-09-12T13:11:59;1.90;;;1.23;;
12332;SDS011;6232;48.094;11.288;2022-09-12T13:14:49;6.88;;;1.20;;
12332;SDS011;6232;48.094;11.288;2022-09-12T13:17:42;0.95;;;0.90;;
12332;SDS011;6232;48.094;11.288;2022-09-12T13:20:29;1.30;;;1.20;;
12332;SDS011;6232;48.094;11.288;2022-09-12T13:23:26;1.42;;;1.33;;
12332;SDS011;6232;48.094;11.288;2022-09-12T13:26:13;2.00;;;1.60;;
12332;SDS011;6232;48.094;11.288;2022-09-12T13:29:21;1.55;;;1.42;;
12332;SDS011;6232;48.094;11.288;2022-09-12T13:32:07;1.30;;;1.20;;
12332;SDS011;6232;48.094;11.288;2022-09-12T13:35:12;0.95;;;0.93;;
12332;SDS011;6232;48.094;11.288;2022-09-12T13:38:04;1.50;;;1.40;;
12332;SDS011;6232;48.094;11.288;2022-09-12T13:41:06;2.72;;;1.20;;
12332;SDS011;6232;48.094;11.288;2022-09-12T13:43:58;1.30;;;1.20;;
12332;SDS011;6232;48.094;11.288;2022-09-12T13:46:45;2.15;;;1.40;;
12332;SDS011;6232;48.094;11.288;2022-09-12T13:49:31;1.50;;;1.40;;
12332;SDS011;6232;48.094;11.288;2022-09-12T13:52:20;4.03;;;1.40;;
12332;SDS011;6232;48.094;11.288;2022-09-12T13:55:07;1.50;;;1.40;;
12332;SDS011;6232;48.094;11.288;2022-09-12T13:58:03;1.50;;;1.40;;
12332;SDS011;6232;48.094;11.288;2022-09-12T14:04:17;1.38;;;1.27;;
12332;SDS011;6232;48.094;11.288;2022-09-12T14:10:31;6.07;;;1.50;;
12332;SDS011;6232;48.094;11.288;2022-09-12T14:16:02;3.50;;;1.45;;
12332;SDS011;6232;48.094;11.288;2022-09-12T14:18:49;1.60;;;1.50;;
12332;SDS011;6232;48.094;11.288;2022-09-12T14:21:38;2.13;;;1.33;;
12332;SDS011;6232;48.094;11.288;2022-09-12T14:24:24;1.48;;;1.38;;
12332;SDS011;6232;48.094;11.288;2022-09-12T14:27:10;1.70;;;1.60;;
12332;SDS011;6232;48.094;11.288;2022-09-12T14:30:00;1.85;;;1.50;;
12332;SDS011;6232;48.094;11.288;2022-09-12T14:35:51;3.47;;;1.70;;
12332;SDS011;6232;48.094;11.288;2022-09-12T14:38:41;1.30;;;1.20;;
12332;SDS011;6232;48.094;11.288;2022-09-12T14:41:28;1.45;;;1.35;;
12332;SDS011;6232;48.094;11.288;2022-09-12T14:44:16;1.45;;;1.23;;
12332;SDS011;6232;48.094;11.288;2022-09-12T14:47:13;2.33;;;1.10;;
12332;SDS011;6232;48.094;11.288;2022-09-12T14:50:00;3.33;;;1.33;;
12332;SDS011;6232;48.094;11.288;2022-09-12T14:52:45;1.92;;;1.50;;
12332;SDS011;6232;48.094;11.288;2022-09-12T14:58:43;1.55;;;1.40;;
12332;SDS011;6232;48.094;11.288;2022-09-12T15:01:29;9.75;;;1.40;;
12332;SDS011;6232;48.094;11.288;2022-09-12T15:04:36;2.35;;;1.42;;
12332;SDS011;6232;48.094;11.288;2022-09-12T15:07:39;3.22;;;1.20;;
12332;SDS011;6232;48.094;11.288;2022-09-12T15:10:30;1.52;;;1.42;;
12332;SDS011;6232;48.094;11.288;2022-09-12T15:13:17;1.35;;;1.15;;
12332;SDS011;6232;48.094;11.288;2022-09-12T15:16:03;1.20;;;1.10;;
12332;SDS011;6232;48.094;11.288;2022-09-12T15:18:49;1.30;;;1.20;;
12332;SDS011;6232;48.094;11.288;2022-09-12T15:21:34;1.65;;;1.17;;
12332;SDS011;6232;48.094;11.288;2022-09-12T15:24:20;1.95;;;1.30;;
12332;SDS011;6232;48.094;11.288;2022-09-12T15:27:11;2.20;;;1.20;;
12332;SDS011;6232;48.094;11.288;2022-09-12T15:29:57;1.63;;;1.45;;
12332;SDS011;6232;48.094;11.288;2022-09-12T15:32:43;1.40;;;1.30;;
12332;SDS011;6232;48.094;11.288;2022-09-12T15:35:29;1.83;;;1.73;;
12332;SDS011;6232;48.094;11.288;2022-09-12T15:38:16;2.80;;;1.83;;
12332;SDS011;6232;48.094;11.288;2022-09-12T15:41:03;1.60;;;1.50;;
12332;SDS011;6232;48.094;11.288;2022-09-12T15:43:48;1.70;;;1.60;;
12332;SDS011;6232;48.094;11.288;2022-09-12T15:46:34;2.20;;;1.67;;
12332;SDS011;6232;48.094;11.288;2022-09-12T15:49:20;2.80;;;1.70;;
12332;SDS011;6232;48.094;11.288;2022-09-12T15:52:06;5.37;;;1.90;;
12332;SDS011;6232;48.094;11.288;2022-09-12T15:54:51;2.00;;;1.83;;
12332;SDS011;6232;48.094;11.288;2022-09-12T15:57:37;2.80;;;1.90;;
12332;SDS011;6232;48.094;11.288;2022-09-12T16:00:24;3.20;;;2.73;;
12332;SDS011;6232;48.094;11.288;2022-09-12T16:03:21;2.27;;;2.03;;
12332;SDS011;6232;48.094;11.288;2022-09-12T16:06:07;2.37;;;2.17;;
12332;SDS011;6232;48.094;11.288;2022-09-12T16:08:55;2.40;;;2.20;;
12332;SDS011;6232;48.094;11.288;2022-09-12T16:11:41;2.20;;;2.00;;
12332;SDS011;6232;48.094;11.288;2022-09-12T16:14:26;2.63;;;2.30;;
12332;SDS011;6232;48.094;11.288;2022-09-12T16:17:12;2.33;;;2.13;;
12332;SDS011;6232;48.094;11.288;2022-09-12T16:19:57;2.20;;;2.00;;
12332;SDS011;6232;48.094;11.288;2022-09-12T16:22:43;3.03;;;2.40;;
12332;SDS011;6232;48.094;11.288;2022-09-12T16:25:28;2.83;;;2.13;;
12332;SDS011;6232;48.094;11.288;2022-09-12T16:28:14;2.20;;;2.03;;
12332;SDS011;6232;48.094;11.288;2022-09-12T16:31:00;2.70;;;1.93;;
12332;SDS011;6232;48.094;11.288;2022-09-12T16:33:46;3.00;;;2.40;;
12332;SDS011;6232;48.094;11.288;2022-09-12T16:36:32;3.70;;;2.43;;
12332;SDS011;6232;48.094;11.288;2022-09-12T16:39:17;3.33;;;2.10;;
12332;SDS011;6232;48.094;11.288;2022-09-12T16:42:03;3.03;;;2.33;;
12332;SDS011;6232;48.094;11.288;2022-09-12T16:44:49;5.83;;;2.10;;
12332;SDS011;6232;48.094;11.288;2022-09-12T16:47:34;2.57;;;2.37;;
12332;SDS011;6232;48.094;11.288;2022-09-12T16:50:20;2.33;;;2.13;;
12332;SDS011;6232;48.094;11.288;2022-09-12T16:53:05;3.70;;;3.03;;
12332;SDS011;6232;48.094;11.288;2022-09-12T16:55:51;2.40;;;2.20;;
12332;SDS011;6232;48.094;11.288;2022-09-12T16:58:37;2.63;;;2.30;;
12332;SDS011;6232;48.094;11.288;2022-09-12T17:01:24;3.53;;;2.67;;
12332;SDS011;6232;48.094;11.288;2022-09-12T17:04:09;6.70;;;2.70;;
12332;SDS011;6232;48.094;11.288;2022-09-12T17:06:56;9.07;;;3.10;;
12332;SDS011;6232;48.094;11.288;2022-09-12T17:09:43;3.87;;;2.50;;
12332;SDS011;6232;48.094;11.288;2022-09-12T17:12:31;3.83;;;2.63;;
12332;SDS011;6232;48.094;11.288;2022-09-12T17:15:16;2.63;;;2.40;;
12332;SDS011;6232;48.094;11.288;2022-09-12T17:18:02;3.70;;;2.60;;
12332;SDS011;6232;48.094;11.288;2022-09-12T17:20:47;6.80;;;2.33;;
12332;SDS011;6232;48.094;11.288;2022-09-12T17:23:33;2.83;;;2.60;;
12332;SDS011;6232;48.094;11.288;2022-09-12T17:26:19;2.60;;;2.40;;
12332;SDS011;6232;48.094;11.288;2022-09-12T17:29:05;4.00;;;3.10;;
12332;SDS011;6232;48.094;11.288;2022-09-12T17:31:50;2.53;;;2.33;;
12332;SDS011;6232;48.094;11.288;2022-09-12T17:34:36;3.50;;;3.03;;
12332;SDS011;6232;48.094;11.288;2022-09-12T17:37:21;3.30;;;3.10;;
12332;SDS011;6232;48.094;11.288;2022-09-12T17:40:07;4.17;;;3.73;;
12332;SDS011;6232;48.094;11.288;2022-09-12T17:42:53;3.83;;;3.37;;
12332;SDS011;6232;48.094;11.288;2022-09-12T17:45:40;3.80;;;2.70;;
12332;SDS011;6232;48.094;11.288;2022-09-12T17:48:29;5.70;;;4.20;;
12332;SDS011;6232;48.094;11.288;2022-09-12T17:51:15;5.43;;;4.27;;
12332;SDS011;6232;48.094;11.288;2022-09-12T17:54:02;4.60;;;4.20;;
12332;SDS011;6232;48.094;11.288;2022-09-12T17:56:48;3.70;;;2.93;;
12332;SDS011;6232;48.094;11.288;2022-09-12T17:59:35;3.07;;;2.77;;
12332;SDS011;6232;48.094;11.288;2022-09-12T18:02:21;4.13;;;3.70;;
12332;SDS011;6232;48.094;11.288;2022-09-12T18:05:06;3.73;;;3.43;;
12332;SDS011;6232;48.094;11.288;2022-09-12T18:07:54;4.03;;;3.47;;
12332;SDS011;6232;48.094;11.288;2022-09-12T18:10:40;4.60;;;3.50;;
12332;SDS011;6232;48.094;11.288;2022-09-12T18:13:25;3.90;;;3.60;;
12332;SDS011;6232;48.094;11.288;2022-09-12T18:16:12;5.30;;;3.70;;
12332;SDS011;6232;48.094;11.288;2022-09-12T18:18:58;6.90;;;4.50;;
12332;SDS011;6232;48.094;11.288;2022-09-12T18:21:45;4.67;;;4.27;;
12332;SDS011;6232;48.094;11.288;2022-09-12T18:24:31;9.80;;;4.10;;
12332;SDS011;6232;48.094;11.288;2022-09-12T18:27:16;4.67;;;4.10;;
12332;SDS011;6232;48.094;11.288;2022-09-12T18:30:02;4.10;;;3.70;;
12332;SDS011;6232;48.094;11.288;2022-09-12T18:32:48;6.70;;;4.03;;
12332;SDS011;6232;48.094;11.288;2022-09-12T18:35:36;4.70;;;4.30;;
12332;SDS011;6232;48.094;11.288;2022-09-12T18:38:27;5.17;;;4.67;;
12332;SDS011;6232;48.094;11.288;2022-09-12T18:41:17;5.10;;;3.90;;
12332;SDS011;6232;48.094;11.288;2022-09-12T18:44:03;3.97;;;3.57;;
12332;SDS011;6232;48.094;11.288;2022-09-12T18:46:49;5.97;;;3.20;;
12332;SDS011;6232;48.094;11.288;2022-09-12T18:49:34;5.30;;;4.20;;
12332;SDS011;6232;48.094;11.288;2022-09-12T18:52:20;4.97;;;3.87;;
12332;SDS011;6232;48.094;11.288;2022-09-12T18:55:06;6.03;;;4.37;;
12332;SDS011;6232;48.094;11.288;2022-09-12T18:57:53;3.83;;;3.43;;
12332;SDS011;6232;48.094;11.288;2022-09-12T19:00:39;10.30;;;4.43;;
12332;SDS011;6232;48.094;11.288;2022-09-12T19:03:25;19.40;;;11.37;;